Terminal Aerodrome Forecast
Issued by NWS North Platte, NE

Home | Current Version | Previous Version | Text Only | Print | Product List | Glossary Off
Versions: 1 2 3 4 5 6 7 8 9 10 11 12 13 14

000
FTUS43 KLBF 021500 AAA
TAFVTN
TAF AMD
KVTN 021529Z 0215/0312 33010G18KT P6SM VCSH SCT040 BKN080
      TEMPO 0215/0216 -SHRA BKN040
     FM021600 33010G19KT P6SM SCT080
     FM030000 VRB03KT P6SM BKN100=

USA.gov is the U.S. government's official web portal to all federal, state and local government web resources and services.